Time;durP1;ratioP1;P1;durP2;ratioP2;P2;SDS_P1;SDS_P2;PMS_P1;PMS_P2;Temp;Humidity;BMP_temperature;BMP_pressure;BME280_temperature;BME280_humidity;BME280_pressure;Samples;Min_cycle;Max_cycle;Signal;HPM_P1;HPM_P2
2023/03/10 00:00:04;;;;;;;4.50;1.90;;;;;9.70;98268.00;;;;9731585;30;20220;-79
2023/03/10 00:05:07;;;;;;;8.30;2.33;;;;;9.70;98255.00;;;;9729056;30;20214;-79
2023/03/10 00:10:11;;;;;;;4.30;1.90;;;;;9.70;98266.00;;;;9743161;30;20309;-78
2023/03/10 00:15:13;;;;;;;2.63;1.80;;;;;9.70;98266.00;;;;9745018;30;20252;-79
2023/03/10 00:20:15;;;;;;;4.90;1.60;;;;;9.70;98263.00;;;;9726713;30;20207;-79
2023/03/10 00:25:17;;;;;;;4.00;1.93;;;;;9.70;98252.00;;;;9742129;30;20258;-79
2023/03/10 00:30:20;;;;;;;6.23;1.63;;;;;9.70;98250.00;;;;9722203;30;20329;-79
2023/03/10 00:35:22;;;;;;;5.97;2.00;;;;;9.60;98259.00;;;;9719615;30;20195;-78
2023/03/10 00:40:24;;;;;;;3.13;1.80;;;;;9.60;98252.00;;;;9738698;30;20222;-78
2023/03/10 00:45:26;;;;;;;4.90;2.00;;;;;9.60;98244.00;;;;9754490;30;20242;-79
2023/03/10 00:50:28;;;;;;;3.67;2.30;;;;;9.60;98258.00;;;;9717980;30;20202;-79
2023/03/10 00:55:30;;;;;;;3.67;2.30;;;;;9.60;98251.00;;;;9740461;30;20202;-80
2023/03/10 01:00:32;;;;;;;5.83;1.80;;;;;9.60;98256.00;;;;9703773;30;20221;-80
2023/03/10 01:05:34;;;;;;;13.77;4.63;;;;;9.70;98240.00;;;;9746395;30;20289;-79
2023/03/10 01:10:36;;;;;;;10.17;3.13;;;;;9.70;98223.00;;;;9717809;30;20301;-78
2023/03/10 01:15:39;;;;;;;10.77;3.43;;;;;9.80;98241.00;;;;9747845;30;20263;-78
2023/03/10 01:20:42;;;;;;;7.43;3.40;;;;;9.80;98223.00;;;;9722718;30;20215;-79
2023/03/10 01:25:44;;;;;;;10.47;2.83;;;;;9.80;98211.00;;;;9717238;30;20207;-80
2023/03/10 01:30:47;;;;;;;8.63;2.90;;;;;9.80;98201.00;;;;9734693;30;20202;-80
2023/03/10 01:35:49;;;;;;;13.87;3.00;;;;;9.80;98207.00;;;;9750745;30;20298;-80
2023/03/10 01:40:51;;;;;;;10.27;2.60;;;;;9.80;98202.00;;;;9716712;30;20671;-80
2023/03/10 01:45:53;;;;;;;15.30;2.73;;;;;9.80;98193.00;;;;9736070;30;20274;-80
2023/03/10 01:50:56;;;;;;;7.10;2.10;;;;;9.70;98176.00;;;;9727531;30;20234;-79
2023/03/10 01:56:02;;;;;;;12.00;2.67;;;;;9.70;98177.00;;;;9740125;30;20227;-81
2023/03/10 02:01:06;;;;;;;9.87;2.37;;;;;9.80;98173.00;;;;9685738;30;20615;-80
2023/03/10 02:06:13;;;;;;;9.67;3.03;;;;;9.80;98150.00;;;;9702680;30;20694;-80
2023/03/10 02:11:16;;;;;;;20.17;2.70;;;;;9.70;98148.00;;;;9719539;30;20241;-80
2023/03/10 02:16:19;;;;;;;11.57;2.47;;;;;9.60;98140.00;;;;9730539;30;20213;-79
2023/03/10 02:21:33;;;;;;;10.50;2.43;;;;;9.60;98131.00;;;;9729408;30;20210;-79
2023/03/10 02:27:03;;;;;;;15.03;2.90;;;;;9.60;98119.00;;;;9718248;30;20895;-80
2023/03/10 02:32:06;;;;;;;8.63;2.20;;;;;9.50;98110.00;;;;9738793;30;20668;-80
2023/03/10 02:37:21;;;;;;;14.63;2.47;;;;;9.40;98111.00;;;;9715363;30;20656;-80
2023/03/10 02:42:28;;;;;;;12.37;2.30;;;;;9.40;98099.00;;;;9709839;30;20232;-80
2023/03/10 02:47:31;;;;;;;15.53;2.60;;;;;9.40;98097.00;;;;9732423;30;20241;-79
2023/03/10 02:52:49;;;;;;;11.07;3.40;;;;;9.50;98099.00;;;;9727749;30;20212;-79
2023/03/10 02:57:51;;;;;;;17.43;3.13;;;;;9.50;98095.00;;;;9712981;30;20202;-80
2023/03/10 03:02:53;;;;;;;13.43;3.43;;;;;9.50;98095.00;;;;9729679;30;20325;-80
2023/03/10 03:07:55;;;;;;;19.33;2.83;;;;;9.50;98085.00;;;;9730219;30;20645;-81
2023/03/10 03:12:58;;;;;;;14.53;2.90;;;;;9.50;98079.00;;;;9732498;30;20207;-80
2023/03/10 03:18:03;;;;;;;12.87;2.87;;;;;9.60;98069.00;;;;9738925;30;20213;-80
2023/03/10 03:23:07;;;;;;;18.73;3.77;;;;;9.60;98066.00;;;;9712419;30;20215;-80
2023/03/10 03:28:11;;;;;;;11.77;2.80;;;;;9.60;98059.00;;;;9707514;30;20776;-81
2023/03/10 03:33:14;;;;;;;18.97;3.63;;;;;9.60;98065.00;;;;9726485;30;20210;-81
2023/03/10 03:38:17;;;;;;;22.53;3.70;;;;;9.50;98053.00;;;;9732309;30;20199;-80
2023/03/10 03:43:19;;;;;;;15.93;3.53;;;;;9.60;98053.00;;;;9731781;30;20238;-81
2023/03/10 03:48:22;;;;;;;17.37;3.13;;;;;9.50;98054.00;;;;9728581;30;20261;-80
2023/03/10 03:53:25;;;;;;;14.57;2.50;;;;;9.50;98047.00;;;;9738606;30;20206;-79
2023/03/10 03:59:32;;;;;;;11.83;2.30;;;;;9.50;98041.00;;;;9738086;30;20206;-80
2023/03/10 04:04:34;;;;;;;15.00;2.37;;;;;9.40;98037.00;;;;9699937;30;20293;-80
2023/03/10 04:09:40;;;;;;;10.00;2.20;;;;;9.40;98039.00;;;;9733077;30;20231;-79
2023/03/10 04:14:42;;;;;;;9.57;2.00;;;;;9.40;98026.00;;;;9722595;30;20278;-81
2023/03/10 04:19:45;;;;;;;10.23;1.80;;;;;9.30;98035.00;;;;9737447;30;20681;-80
2023/03/10 04:25:04;;;;;;;8.60;2.83;;;;;9.20;98038.00;;;;9752531;30;20201;-81
2023/03/10 04:30:11;;;;;;;11.40;1.67;;;;;9.20;98032.00;;;;9734248;30;20844;-81
2023/03/10 04:35:16;;;;;;;9.53;2.03;;;;;9.30;98027.00;;;;9735906;30;20230;-81
2023/03/10 04:40:19;;;;;;;10.10;1.50;;;;;9.20;98026.00;;;;9736827;30;20207;-80
2023/03/10 04:45:22;;;;;;;10.90;2.50;;;;;9.10;98028.00;;;;9720733;30;20643;-80
2023/03/10 04:50:26;;;;;;;8.27;2.23;;;;;8.90;98035.00;;;;9735703;30;20285;-79
2023/03/10 04:55:29;;;;;;;5.37;1.67;;;;;8.70;98033.00;;;;9739838;30;20222;-80
2023/03/10 05:00:34;;;;;;;6.03;1.77;;;;;8.70;98033.00;;;;9735484;30;20218;-80
2023/03/10 05:05:37;;;;;;;5.87;1.30;;;;;8.80;98039.00;;;;9743972;30;20219;-81
2023/03/10 05:10:42;;;;;;;6.10;1.40;;;;;8.80;98027.00;;;;9722618;30;20284;-80
2023/03/10 05:15:44;;;;;;;7.37;1.90;;;;;8.90;98022.00;;;;9729643;30;20596;-80
2023/03/10 05:20:54;;;;;;;9.03;2.23;;;;;9.00;98022.00;;;;9725455;30;20282;-81
2023/03/10 05:25:57;;;;;;;9.40;1.63;;;;;8.90;98024.00;;;;9744395;30;20207;-79
2023/03/10 05:31:00;;;;;;;8.30;2.77;;;;;8.90;98028.00;;;;9734990;30;20463;-79
2023/03/10 05:36:05;;;;;;;6.60;1.70;;;;;8.90;98026.00;;;;9679667;30;20207;-78
2023/03/10 05:41:10;;;;;;;10.87;2.40;;;;;8.90;98023.00;;;;9728523;30;20225;-79
2023/03/10 05:46:13;;;;;;;7.80;2.37;;;;;9.00;98023.00;;;;9732222;30;20236;-79
2023/03/10 05:51:21;;;;;;;9.00;1.87;;;;;8.90;98040.00;;;;9728653;30;20214;-78
2023/03/10 05:56:23;;;;;;;12.00;2.20;;;;;8.90;98036.00;;;;9715196;30;20222;-79
2023/03/10 06:01:29;;;;;;;11.20;2.83;;;;;8.90;98035.00;;;;9714868;30;20305;-78
2023/03/10 06:06:31;;;;;;;10.43;2.20;;;;;8.90;98040.00;;;;9747457;30;20202;-79
2023/03/10 06:11:33;;;;;;;8.83;1.83;;;;;9.00;98043.00;;;;9711433;30;20887;-79
2023/03/10 06:16:35;;;;;;;12.77;2.53;;;;;9.00;98043.00;;;;9724025;30;20199;-79
2023/03/10 06:21:37;;;;;;;8.87;1.73;;;;;8.90;98030.00;;;;9723983;30;20206;-79
2023/03/10 06:26:40;;;;;;;13.63;2.30;;;;;8.80;98034.00;;;;9732874;30;20210;-79
2023/03/10 06:31:42;;;;;;;12.20;2.40;;;;;8.80;98037.00;;;;9697777;30;20222;-79
2023/03/10 06:36:44;;;;;;;15.43;3.70;;;;;8.80;98035.00;;;;9731484;30;20217;-78
2023/03/10 06:41:46;;;;;;;14.57;2.43;;;;;8.90;98045.00;;;;9718987;30;20567;-79
2023/03/10 06:46:48;;;;;;;8.50;2.47;;;;;9.00;98030.00;;;;9729761;30;20648;-79
2023/03/10 06:51:50;;;;;;;17.53;2.20;;;;;9.20;98026.00;;;;9736600;30;20269;-77
2023/03/10 06:56:52;;;;;;;11.83;2.60;;;;;9.50;98028.00;;;;9701186;30;20249;-79
2023/03/10 07:01:54;;;;;;;9.27;2.37;;;;;9.90;98018.00;;;;9708432;30;20301;-79
2023/03/10 07:06:56;;;;;;;10.57;2.23;;;;;10.10;98026.00;;;;9714888;30;20779;-79
2023/03/10 07:11:58;;;;;;;9.50;2.50;;;;;10.40;98036.00;;;;9735420;30;20218;-78
2023/03/10 07:17:01;;;;;;;11.53;2.77;;;;;10.50;98040.00;;;;9724412;30;20205;-79
2023/03/10 07:22:03;;;;;;;11.03;2.20;;;;;10.60;98043.00;;;;9719882;30;20583;-79
2023/03/10 07:27:06;;;;;;;10.60;2.27;;;;;10.40;98043.00;;;;9738911;30;20226;-79
2023/03/10 07:32:08;;;;;;;6.60;2.43;;;;;10.30;98048.00;;;;9727981;30;20202;-79
2023/03/10 07:37:10;;;;;;;10.33;2.70;;;;;10.10;98052.00;;;;9725412;30;20214;-78
2023/03/10 07:42:11;;;;;;;11.87;3.00;;;;;9.90;98053.00;;;;9718243;30;20283;-78
2023/03/10 07:47:17;;;;;;;10.30;2.30;;;;;9.70;98054.00;;;;9714829;30;20313;-79
2023/03/10 07:52:19;;;;;;;9.03;2.30;;;;;9.60;98061.00;;;;9723226;30;20191;-78
2023/03/10 07:57:24;;;;;;;14.50;2.70;;;;;9.50;98073.00;;;;9712738;30;20194;-79
2023/03/10 08:02:26;;;;;;;10.57;2.77;;;;;9.40;98073.00;;;;9727379;30;20260;-79
2023/03/10 08:07:30;;;;;;;8.93;2.20;;;;;9.40;98062.00;;;;9713480;30;20684;-79
2023/03/10 08:12:33;;;;;;;10.90;2.40;;;;;9.50;98065.00;;;;9729948;30;20218;-80
2023/03/10 08:17:35;;;;;;;9.47;2.23;;;;;9.60;98049.00;;;;9747229;30;20206;-79
2023/03/10 08:22:37;;;;;;;8.37;1.87;;;;;9.90;98047.00;;;;9717334;30;20206;-78
2023/03/10 08:27:40;;;;;;;8.73;2.07;;;;;9.70;98040.00;;;;9726474;30;20232;-78
2023/03/10 08:32:42;;;;;;;5.90;1.33;;;;;9.60;98040.00;;;;9733288;30;20697;-79
2023/03/10 08:37:45;;;;;;;6.60;1.43;;;;;9.60;98053.00;;;;9717489;30;20215;-79
2023/03/10 08:42:47;;;;;;;6.10;1.67;;;;;9.50;98043.00;;;;9744729;30;20230;-80
2023/03/10 08:47:49;;;;;;;3.63;1.67;;;;;9.50;98041.00;;;;9726555;30;20211;-80
2023/03/10 08:52:51;;;;;;;3.77;1.00;;;;;9.40;98032.00;;;;9728394;30;20195;-80
2023/03/10 08:57:53;;;;;;;3.43;1.53;;;;;9.60;98040.00;;;;9745765;30;20213;-79
2023/03/10 09:02:56;;;;;;;3.23;1.00;;;;;9.80;98041.00;;;;9744258;30;20220;-78
2023/03/10 09:07:57;;;;;;;5.43;0.93;;;;;9.90;98035.00;;;;9723101;30;20227;-79
2023/03/10 09:12:59;;;;;;;2.03;1.00;;;;;9.90;98047.00;;;;9707702;30;20729;-78
2023/03/10 09:18:14;;;;;;;3.37;1.10;;;;;10.00;98043.00;;;;9712624;30;20202;-79
2023/03/10 09:23:17;;;;;;;2.73;0.97;;;;;10.20;98054.00;;;;9738232;30;20205;-79
2023/03/10 09:28:20;;;;;;;4.60;1.03;;;;;10.30;98053.00;;;;9742650;30;20227;-79
2023/03/10 09:33:22;;;;;;;3.07;1.30;;;;;10.30;98040.00;;;;9717120;30;20268;-79
2023/03/10 09:38:24;;;;;;;5.23;1.50;;;;;10.40;98048.00;;;;9743562;30;20613;-79
2023/03/10 09:43:34;;;;;;;3.00;1.20;;;;;10.80;98050.00;;;;9732559;30;20227;-78
2023/03/10 09:48:55;;;;;;;3.53;1.33;;;;;11.20;98043.00;;;;9715659;30;20302;-79
2023/03/10 09:54:32;;;;;;;6.10;1.37;;;;;11.00;98070.00;;;;9745496;30;20201;-78
2023/03/10 09:59:38;;;;;;;3.70;1.90;;;;;10.70;98079.00;;;;9737633;30;20647;-79
2023/03/10 10:04:41;;;;;;;3.20;2.03;;;;;10.60;98084.00;;;;9739158;30;20541;-79
2023/03/10 10:09:52;;;;;;;10.80;3.20;;;;;10.80;98095.00;;;;9731072;30;20706;-80
2023/03/10 10:15:05;;;;;;;7.20;3.43;;;;;10.90;98092.00;;;;9730313;30;20258;-79
2023/03/10 10:20:19;;;;;;;4.13;2.47;;;;;11.10;98108.00;;;;9734564;30;20225;-79
2023/03/10 10:25:23;;;;;;;4.10;2.90;;;;;11.00;98121.00;;;;9709786;30;20202;-78
2023/03/10 10:30:35;;;;;;;5.47;2.30;;;;;11.30;98113.00;;;;9705140;30;20230;-79
2023/03/10 10:36:04;;;;;;;5.47;2.80;;;;;11.60;98107.00;;;;9706816;30;20260;-79
2023/03/10 10:41:16;;;;;;;3.07;2.30;;;;;12.20;98102.00;;;;9707798;30;20234;-79
2023/03/10 10:46:26;;;;;;;2.80;2.23;;;;;12.00;98095.00;;;;9721777;30;20244;-78
2023/03/10 10:51:31;;;;;;;3.70;1.90;;;;;11.80;98090.00;;;;9743804;30;20645;-79
2023/03/10 10:56:33;;;;;;;3.63;2.17;;;;;12.10;98101.00;;;;9717014;30;20214;-79
2023/03/10 11:02:10;;;;;;;3.33;2.17;;;;;12.30;98124.00;;;;9750960;30;20194;-78
2023/03/10 11:07:24;;;;;;;9.77;6.50;;;;;12.20;98146.00;;;;9694705;30;20214;-78
2023/03/10 11:12:33;;;;;;;9.17;5.00;;;;;12.40;98166.00;;;;9733135;30;20206;-79
2023/03/10 11:18:05;;;;;;;7.40;5.23;;;;;12.00;98156.00;;;;9707779;30;20239;-79
2023/03/10 11:23:20;;;;;;;2.77;2.30;;;;;12.30;98145.00;;;;9728581;30;20225;-78
2023/03/10 11:28:52;;;;;;;4.00;3.07;;;;;12.90;98132.00;;;;9729500;30;20222;-79
2023/03/10 11:34:19;;;;;;;3.20;2.50;;;;;12.50;98129.00;;;;9697190;30;20274;-78
2023/03/10 11:39:48;;;;;;;3.43;2.30;;;;;12.30;98130.00;;;;9721471;30;20190;-79
2023/03/10 11:44:50;;;;;;;3.63;3.20;;;;;11.70;98154.00;;;;9694923;30;20257;-79
2023/03/10 11:50:03;;;;;;;1.23;1.10;;;;;11.00;98168.00;;;;9748827;30;20215;-79
2023/03/10 11:55:15;;;;;;;2.00;1.00;;;;;10.60;98169.00;;;;9758785;30;20197;-78
2023/03/10 12:00:29;;;;;;;2.00;1.50;;;;;10.20;98189.00;;;;9730262;30;20196;-78
2023/03/10 12:05:42;;;;;;;2.03;1.30;;;;;9.80;98182.00;;;;9728549;30;20692;-79
2023/03/10 12:10:44;;;;;;;4.43;1.80;;;;;10.20;98189.00;;;;9737493;30;20214;-80
2023/03/10 12:15:48;;;;;;;1.83;1.10;;;;;10.20;98188.00;;;;9760233;30;20233;-78
2023/03/10 12:21:20;;;;;;;2.27;1.70;;;;;9.80;98221.00;;;;9748882;30;20241;-79
2023/03/10 12:26:43;;;;;;;4.90;1.80;;;;;9.70;98216.00;;;;9755110;30;20845;-78
2023/03/10 12:31:54;;;;;;;1.30;1.20;;;;;9.60;98227.00;;;;9727571;30;20282;-80
2023/03/10 12:37:10;;;;;;;2.80;1.53;;;;;9.50;98230.00;;;;9734838;30;20233;-79
2023/03/10 12:42:31;;;;;;;4.40;1.70;;;;;9.90;98235.00;;;;9741375;30;20269;-79
2023/03/10 12:48:02;;;;;;;6.17;1.70;;;;;9.50;98249.00;;;;9723715;30;20321;-79
2023/03/10 12:53:29;;;;;;;4.90;3.03;;;;;9.20;98241.00;;;;9721159;30;20222;-78
2023/03/10 12:58:34;;;;;;;3.10;1.50;;;;;9.20;98252.00;;;;9723209;30;20209;-78
2023/03/10 13:03:50;;;;;;;3.20;2.00;;;;;9.00;98237.00;;;;9737331;30;20671;-80
2023/03/10 13:09:09;;;;;;;2.93;1.90;;;;;9.00;98242.00;;;;9739933;30;20214;-79
2023/03/10 13:14:14;;;;;;;3.37;2.33;;;;;9.00;98267.00;;;;9735038;30;20191;-79
2023/03/10 13:19:21;;;;;;;2.63;2.03;;;;;9.00;98282.00;;;;9745251;30;20202;-79
2023/03/10 13:24:29;;;;;;;4.43;2.50;;;;;8.70;98301.00;;;;9741421;30;20198;-79
2023/03/10 13:29:32;;;;;;;4.17;1.80;;;;;8.40;98329.00;;;;9741683;30;20339;-80
2023/03/10 13:34:35;;;;;;;1.80;1.70;;;;;8.20;98339.00;;;;9741129;30;20210;-80
2023/03/10 13:39:37;;;;;;;3.30;2.53;;;;;8.30;98358.00;;;;9719747;30;20198;-80
2023/03/10 13:44:40;;;;;;;14.20;6.37;;;;;8.20;98374.00;;;;9749685;30;20241;-79
2023/03/10 13:49:55;;;;;;;8.43;5.43;;;;;7.90;98394.00;;;;9767067;30;20225;-79
2023/03/10 13:55:14;;;;;;;12.20;4.87;;;;;7.70;98400.00;;;;9745638;30;20207;-79
2023/03/10 14:00:22;;;;;;;6.53;3.50;;;;;7.40;98434.00;;;;9745788;30;20205;-78
2023/03/10 14:05:44;;;;;;;1.50;1.40;;;;;6.50;98496.00;;;;9729594;30;20361;-79
2023/03/10 14:10:46;;;;;;;1.20;1.03;;;;;5.40;98564.00;;;;9718615;30;20738;-79
2023/03/10 14:15:53;;;;;;;0.73;0.73;;;;;5.00;98625.00;;;;9743199;30;20205;-79
2023/03/10 14:20:55;;;;;;;0.80;0.80;;;;;4.70;98635.00;;;;9746980;30;20205;-79
2023/03/10 14:25:58;;;;;;;3.30;1.27;;;;;4.50;98658.00;;;;9722987;30;20256;-79
2023/03/10 14:31:01;;;;;;;2.40;1.60;;;;;4.20;98735.00;;;;9705346;30;20250;-81
2023/03/10 14:36:09;;;;;;;1.93;1.60;;;;;3.70;98758.00;;;;9737365;30;20304;-80
2023/03/10 14:41:12;;;;;;;4.53;3.00;;;;;3.40;98802.00;;;;9718534;30;20194;-81
2023/03/10 14:46:14;;;;;;;2.60;2.40;;;;;3.20;98877.00;;;;9729607;30;20234;-81
2023/03/10 14:51:18;;;;;;;4.03;2.93;;;;;3.20;98896.00;;;;9721648;30;20218;-80
2023/03/10 14:56:35;;;;;;;2.90;2.60;;;;;3.20;98925.00;;;;9720190;30;20214;-80
2023/03/10 15:01:37;;;;;;;2.07;1.87;;;;;3.20;98957.00;;;;9751286;30;20551;-79
2023/03/10 15:06:39;;;;;;;2.63;1.83;;;;;2.90;98967.00;;;;9725089;30;20232;-79
2023/03/10 15:11:41;;;;;;;2.83;2.10;;;;;3.10;99017.00;;;;9736190;30;20210;-79
2023/03/10 15:16:43;;;;;;;4.60;2.13;;;;;3.00;99072.00;;;;9737195;30;20242;-79
2023/03/10 15:21:45;;;;;;;5.07;3.10;;;;;3.00;99114.00;;;;9750674;30;20195;-79
2023/03/10 15:26:48;;;;;;;4.97;3.10;;;;;2.80;99157.00;;;;9734657;30;20208;-78
2023/03/10 15:31:50;;;;;;;7.23;2.40;;;;;2.60;99202.00;;;;9751039;30;20214;-79
2023/03/10 15:36:52;;;;;;;4.13;2.60;;;;;2.60;99195.00;;;;9702971;30;20218;-80
2023/03/10 15:41:53;;;;;;;4.17;2.20;;;;;2.80;99288.00;;;;9718749;30;20207;-79
2023/03/10 15:46:56;;;;;;;2.90;2.60;;;;;2.90;99267.00;;;;9714230;30;20317;-78
2023/03/10 15:51:58;;;;;;;2.87;2.23;;;;;2.90;99280.00;;;;9726053;30;20253;-79
2023/03/10 15:57:00;;;;;;;4.17;2.67;;;;;2.60;99321.00;;;;9767989;30;20209;-79
2023/03/10 16:02:02;;;;;;;3.27;2.73;;;;;2.40;99362.00;;;;9720131;30;20199;-78
2023/03/10 16:07:04;;;;;;;2.87;1.67;;;;;2.40;99392.00;;;;9725012;30;20218;-79
2023/03/10 16:12:06;;;;;;;2.10;1.00;;;;;2.40;99420.00;;;;9734128;30;20218;-79
2023/03/10 16:17:10;;;;;;;1.90;1.23;;;;;2.40;99432.00;;;;9737724;30;20227;-78
2023/03/10 16:22:14;;;;;;;1.57;0.63;;;;;2.30;99450.00;;;;9719589;30;20201;-79
2023/03/10 16:27:16;;;;;;;3.00;0.80;;;;;2.30;99440.00;;;;9735594;30;20294;-79
2023/03/10 16:32:18;;;;;;;0.40;0.40;;;;;2.20;99473.00;;;;9732095;30;20322;-79
2023/03/10 16:37:20;;;;;;;4.47;1.30;;;;;2.30;99489.00;;;;9768464;30;20199;-79
2023/03/10 16:42:23;;;;;;;0.23;0.23;;;;;2.30;99503.00;;;;9732052;30;20226;-80
2023/03/10 16:47:26;;;;;;;4.83;1.50;;;;;2.40;99511.00;;;;9718473;30;20249;-79
2023/03/10 16:52:29;;;;;;;4.17;1.20;;;;;2.60;99557.00;;;;9740624;30;21057;-80
2023/03/10 16:57:31;;;;;;;5.60;1.10;;;;;2.40;99551.00;;;;9739879;30;20202;-80
2023/03/10 17:02:33;;;;;;;2.93;1.27;;;;;2.40;99579.00;;;;9730194;30;20694;-80
2023/03/10 17:07:35;;;;;;;4.03;0.90;;;;;2.40;99594.00;;;;9716165;30;20214;-80
2023/03/10 17:12:54;;;;;;;5.43;1.67;;;;;2.40;99619.00;;;;9743964;30;20213;-79
2023/03/10 17:17:56;;;;;;;7.20;1.20;;;;;2.40;99615.00;;;;9729351;30;20203;-80
2023/03/10 17:22:58;;;;;;;4.70;1.40;;;;;2.40;99626.00;;;;9722169;30;20206;-80
2023/03/10 17:28:00;;;;;;;4.30;1.33;;;;;2.30;99682.00;;;;9737000;30;20238;-79
2023/03/10 17:33:02;;;;;;;6.20;1.30;;;;;2.20;99693.00;;;;9728149;30;20198;-79
2023/03/10 17:38:04;;;;;;;3.23;1.00;;;;;2.10;99718.00;;;;9752614;30;20722;-79
2023/03/10 17:43:06;;;;;;;3.93;1.20;;;;;2.10;99745.00;;;;9720894;30;20586;-80
2023/03/10 17:48:29;;;;;;;4.10;0.97;;;;;2.00;99740.00;;;;9727942;30;20894;-78
2023/03/10 17:53:30;;;;;;;5.70;1.70;;;;;2.00;99759.00;;;;9759099;30;20301;-79
2023/03/10 17:58:34;;;;;;;2.43;0.90;;;;;2.00;99775.00;;;;9742543;30;20208;-80
2023/03/10 18:03:36;;;;;;;5.20;1.37;;;;;1.60;99793.00;;;;9732724;30;20749;-80
2023/03/10 18:08:38;;;;;;;5.07;1.10;;;;;1.50;99811.00;;;;9757471;30;20536;-78
2023/03/10 18:13:40;;;;;;;4.70;1.07;;;;;1.50;99830.00;;;;9736308;30;20222;-79
2023/03/10 18:18:43;;;;;;;4.27;1.10;;;;;1.60;99840.00;;;;9722072;30;20261;-79
2023/03/10 18:23:46;;;;;;;6.67;1.80;;;;;1.50;99870.00;;;;9719619;30;20234;-80
2023/03/10 18:28:49;;;;;;;8.90;2.00;;;;;1.50;99879.00;;;;9744319;30;20218;-80
2023/03/10 18:33:51;;;;;;;7.37;1.77;;;;;1.50;99874.00;;;;9707402;30;20309;-80
2023/03/10 18:38:53;;;;;;;5.40;1.93;;;;;1.60;99875.00;;;;9742576;30;20211;-78
2023/03/10 18:43:56;;;;;;;7.70;1.60;;;;;1.60;99894.00;;;;9723190;30;20270;-80
2023/03/10 18:48:58;;;;;;;9.93;2.07;;;;;1.70;99913.00;;;;9737595;30;20301;-80
2023/03/10 18:54:00;;;;;;;9.40;1.67;;;;;1.70;99899.00;;;;9725287;30;20226;-80
2023/03/10 18:59:02;;;;;;;8.47;1.43;;;;;1.60;99916.00;;;;9744529;30;20209;-79
2023/03/10 19:04:04;;;;;;;4.20;1.17;;;;;1.60;99907.00;;;;9728758;30;20296;-80
2023/03/10 19:09:07;;;;;;;4.40;1.40;;;;;1.70;99944.00;;;;9731984;30;20216;-79
2023/03/10 19:14:10;;;;;;;6.63;1.60;;;;;1.70;99945.00;;;;9746479;30;20272;-81
2023/03/10 19:19:12;;;;;;;4.87;1.30;;;;;1.60;99943.00;;;;9725438;30;20190;-80
2023/03/10 19:24:15;;;;;;;6.53;1.60;;;;;1.50;99951.00;;;;9738618;30;20285;-79
2023/03/10 19:29:17;;;;;;;7.57;2.80;;;;;1.50;99971.00;;;;9753006;30;20682;-79
2023/03/10 19:34:19;;;;;;;11.67;3.03;;;;;1.40;99992.00;;;;9704375;30;20202;-79
2023/03/10 19:39:22;;;;;;;9.63;2.23;;;;;1.40;99983.00;;;;9725435;30;20234;-79
2023/03/10 19:44:26;;;;;;;10.23;2.40;;;;;1.30;99989.00;;;;9733300;30;20282;-79
2023/03/10 19:49:28;;;;;;;9.30;2.20;;;;;1.20;100002.00;;;;9739416;30;20221;-79
2023/03/10 19:54:30;;;;;;;9.73;2.00;;;;;1.10;100000.00;;;;9719073;30;20222;-79
2023/03/10 19:59:32;;;;;;;5.63;1.87;;;;;1.00;100016.00;;;;9730363;30;20214;-79
2023/03/10 20:04:34;;;;;;;9.43;2.50;;;;;1.00;100032.00;;;;9709948;30;20249;-79
2023/03/10 20:09:37;;;;;;;8.73;2.17;;;;;0.90;100045.00;;;;9731481;30;20635;-80
2023/03/10 20:14:39;;;;;;;12.23;2.77;;;;;0.90;100053.00;;;;9742527;30;20226;-80
2023/03/10 20:19:42;;;;;;;5.17;1.57;;;;;0.90;100060.00;;;;9704596;30;20205;-80
2023/03/10 20:24:44;;;;;;;5.80;1.57;;;;;0.80;100057.00;;;;9734916;30;20237;-80
2023/03/10 20:29:47;;;;;;;3.43;1.70;;;;;0.80;100073.00;;;;9727701;30;20218;-79
2023/03/10 20:34:49;;;;;;;5.17;1.70;;;;;0.80;100069.00;;;;9698218;30;20580;-79
2023/03/10 20:39:52;;;;;;;10.23;1.83;;;;;0.70;100081.00;;;;9731772;30;20217;-77
2023/03/10 20:44:54;;;;;;;6.63;2.30;;;;;0.60;100084.00;;;;9733470;30;20238;-79
2023/03/10 20:49:56;;;;;;;6.87;2.20;;;;;0.60;100070.00;;;;9702655;30;20269;-79
2023/03/10 20:54:58;;;;;;;4.60;1.93;;;;;0.60;100069.00;;;;9723581;30;20214;-78
2023/03/10 21:00:00;;;;;;;9.23;2.27;;;;;0.70;100080.00;;;;9732244;30;20672;-78
2023/03/10 21:05:04;;;;;;;7.23;2.30;;;;;0.80;100085.00;;;;9720937;30;20218;-79
2023/03/10 21:10:09;;;;;;;9.23;2.40;;;;;0.90;100091.00;;;;9707106;30;20591;-80
2023/03/10 21:15:14;;;;;;;6.47;2.80;;;;;0.90;100106.00;;;;9726968;30;20210;-78
2023/03/10 21:20:19;;;;;;;14.00;4.87;;;;;0.90;100128.00;;;;9728546;30;20199;-79
2023/03/10 21:25:24;;;;;;;10.27;3.30;;;;;0.90;100140.00;;;;9732805;30;20238;-79
2023/03/10 21:30:28;;;;;;;6.37;2.07;;;;;0.90;100143.00;;;;9708775;30;20319;-79
2023/03/10 21:35:32;;;;;;;10.07;2.67;;;;;1.00;100165.00;;;;9730355;30;20202;-79
2023/03/10 21:40:35;;;;;;;8.60;2.97;;;;;1.00;100157.00;;;;9745859;30;20586;-78
2023/03/10 21:45:37;;;;;;;12.13;3.10;;;;;1.00;100166.00;;;;9726133;30;20230;-78
2023/03/10 21:50:39;;;;;;;12.50;2.57;;;;;1.00;100174.00;;;;9732277;30;20234;-79
2023/03/10 21:55:42;;;;;;;13.13;2.70;;;;;0.90;100181.00;;;;9712139;30;20312;-78
2023/03/10 22:00:44;;;;;;;4.63;2.50;;;;;0.90;100182.00;;;;9722430;30;20715;-79
2023/03/10 22:05:46;;;;;;;6.13;2.30;;;;;0.80;100180.00;;;;9727744;30;20214;-79
2023/03/10 22:10:48;;;;;;;8.20;2.90;;;;;0.80;100178.00;;;;9718984;30;20226;-79
2023/03/10 22:15:50;;;;;;;7.33;2.87;;;;;0.70;100180.00;;;;9725594;30;20242;-78
2023/03/10 22:20:52;;;;;;;9.17;2.50;;;;;0.60;100187.00;;;;9720997;30;20230;-79
2023/03/10 22:25:54;;;;;;;9.87;2.47;;;;;0.70;100177.00;;;;9710128;30;20239;-77
2023/03/10 22:30:56;;;;;;;7.27;2.90;;;;;0.60;100192.00;;;;9738136;30;20277;-79
2023/03/10 22:36:07;;;;;;;6.17;2.70;;;;;0.60;100205.00;;;;9716106;30;20203;-79
2023/03/10 22:41:11;;;;;;;8.77;2.50;;;;;0.80;100207.00;;;;9753172;30;20631;-79
2023/03/10 22:46:16;;;;;;;7.80;2.07;;;;;0.90;100216.00;;;;9723476;30;20222;-79
2023/03/10 22:51:19;;;;;;;9.83;1.90;;;;;1.10;100208.00;;;;9693825;30;20240;-79
2023/03/10 22:56:22;;;;;;;8.17;2.33;;;;;1.10;100222.00;;;;9692449;30;20230;-79
2023/03/10 23:01:25;;;;;;;4.77;2.03;;;;;1.10;100221.00;;;;9734012;30;20210;-79
2023/03/10 23:06:27;;;;;;;7.77;2.03;;;;;1.10;100222.00;;;;9705128;30;20241;-78
2023/03/10 23:11:30;;;;;;;4.50;1.53;;;;;1.00;100230.00;;;;9713449;30;20219;-77
2023/03/10 23:16:34;;;;;;;12.30;2.90;;;;;0.90;100234.00;;;;9731922;30;20206;-79
2023/03/10 23:21:37;;;;;;;23.07;14.30;;;;;0.70;100248.00;;;;9717143;30;20199;-78
2023/03/10 23:26:39;;;;;;;41.63;26.80;;;;;0.60;100254.00;;;;9721668;30;20198;-78
2023/03/10 23:31:42;;;;;;;48.90;31.20;;;;;0.70;100255.00;;;;9746522;30;20666;-79
2023/03/10 23:36:44;;;;;;;36.87;19.57;;;;;0.70;100265.00;;;;9726343;30;20448;-79
2023/03/10 23:41:46;;;;;;;15.67;8.00;;;;;0.70;100247.00;;;;9734972;30;20386;-79
2023/03/10 23:46:52;;;;;;;13.83;4.43;;;;;0.60;100242.00;;;;9709605;30;20279;-79
2023/03/10 23:51:55;;;;;;;10.63;3.60;;;;;0.40;100240.00;;;;9750295;30;20235;-79
2023/03/10 23:56:57;;;;;;;7.77;3.17;;;;;0.20;100246.00;;;;9695858;30;20261;-79
